createdAt,value
2022-12-06T00:00:47.503Z,102587.16
2022-12-06T00:06:19.162Z,102570.91
2022-12-06T00:11:48.195Z,102566.78
2022-12-06T00:17:17.924Z,102569.53
2022-12-06T00:22:45.616Z,102565.06
2022-12-06T00:28:10.119Z,102564.00
2022-12-06T00:33:37.749Z,102559.78
2022-12-06T00:39:03.163Z,102553.31
2022-12-06T00:44:27.358Z,102555.69
2022-12-06T00:49:54.846Z,102539.19
2022-12-06T00:55:20.990Z,102540.44
2022-12-06T01:00:50.480Z,102546.56
2022-12-06T01:06:22.872Z,102537.63
2022-12-06T01:11:45.401Z,102530.38
2022-12-06T01:17:14.347Z,102546.38
2022-12-06T01:22:39.365Z,102537.81
2022-12-06T01:28:04.794Z,102527.41
2022-12-06T01:33:27.673Z,102528.41
2022-12-06T01:38:53.668Z,102524.31
2022-12-06T01:44:41.247Z,102516.41
2022-12-06T01:50:11.285Z,102515.63
2022-12-06T01:55:38.452Z,102512.13
2022-12-06T02:01:03.225Z,102500.69
2022-12-06T02:06:28.482Z,102506.88
2022-12-06T02:11:52.874Z,102507.78
2022-12-06T02:17:35.769Z,102509.63
2022-12-06T02:23:41.197Z,102496.44
2022-12-06T02:29:39.229Z,102487.78
2022-12-06T02:35:12.519Z,102494.69
2022-12-06T02:40:47.227Z,102492.75
2022-12-06T02:46:19.170Z,102496.44
2022-12-06T02:51:46.127Z,102500.06
2022-12-06T02:57:09.430Z,102489.50
2022-12-06T03:02:36.264Z,102486.28
2022-12-06T03:08:07.293Z,102485.41
2022-12-06T03:13:35.764Z,102486.38
2022-12-06T03:19:05.761Z,102479.38
2022-12-06T03:24:34.986Z,102482.94
2022-12-06T03:30:03.972Z,102472.56
2022-12-06T03:35:31.412Z,102464.81
2022-12-06T03:40:59.261Z,102480.56
2022-12-06T03:46:28.114Z,102479.84
2022-12-06T03:51:52.388Z,102471.06
2022-12-06T03:57:17.124Z,102466.69
2022-12-06T04:02:40.903Z,102456.34
2022-12-06T04:08:04.723Z,102456.34
2022-12-06T04:13:30.220Z,102458.13
2022-12-06T09:10:38.673Z,102200.03
2022-12-06T09:16:07.473Z,102191.31
2022-12-06T09:21:33.071Z,102168.34
2022-12-06T09:27:04.066Z,102174.47
2022-12-06T09:32:27.931Z,102152.78
2022-12-06T09:37:52.897Z,102150.84
2022-12-06T09:43:34.051Z,102133.56
2022-12-06T09:49:16.424Z,102118.94
2022-12-06T09:55:00.902Z,102105.94
2022-12-06T10:00:39.963Z,102091.94
2022-12-06T10:06:05.803Z,102087.19
2022-12-06T10:11:51.725Z,102089.19
2022-12-06T10:17:30.454Z,102073.63
2022-12-06T10:23:04.695Z,102061.59
2022-12-06T10:28:40.905Z,102075.56
2022-12-06T10:34:16.909Z,102071.00
2022-12-06T10:39:51.935Z,102048.63
2022-12-06T10:45:43.017Z,102050.44
2022-12-06T10:51:16.179Z,102044.69
2022-12-06T10:56:46.366Z,102045.47
2022-12-06T11:02:25.841Z,102042.72
2022-12-06T11:07:58.301Z,102023.19
2022-12-06T11:13:27.536Z,102018.22
2022-12-06T11:18:58.124Z,102013.50
2022-12-06T11:24:32.879Z,102017.19
2022-12-06T11:29:56.538Z,102008.41
2022-12-06T11:35:27.622Z,102013.19
2022-12-06T11:40:58.191Z,102009.81
2022-12-06T11:46:28.262Z,101996.28
2022-12-06T11:52:00.888Z,101986.00
2022-12-06T11:57:30.859Z,101981.63
2022-12-06T12:02:59.675Z,101974.56
2022-12-06T12:08:32.828Z,101972.38
2022-12-06T12:14:03.606Z,101980.81
2022-12-06T12:19:37.519Z,101971.19
2022-12-06T12:25:19.448Z,101963.44
2022-12-06T12:30:54.119Z,101967.97
2022-12-06T12:36:28.403Z,101968.38
2022-12-06T12:41:56.997Z,101961.13
2022-12-06T12:47:22.260Z,101956.22
2022-12-06T12:52:47.235Z,101949.59
2022-12-06T12:58:13.176Z,101959.19
2022-12-06T13:03:52.312Z,101956.81
2022-12-06T13:09:21.071Z,101971.59
2022-12-06T13:14:52.859Z,101957.34
2022-12-06T13:20:23.653Z,101947.28
2022-12-06T13:25:53.314Z,101951.03
2022-12-06T16:54:42.423Z,101872.78
2022-12-06T17:00:13.191Z,101874.72
2022-12-06T17:05:37.476Z,101857.56
2022-12-06T17:11:16.585Z,101866.19
2022-12-06T17:16:46.960Z,101849.13
2022-12-06T17:22:11.599Z,101857.38
2022-12-06T17:27:40.378Z,101841.44
2022-12-06T17:33:04.228Z,101846.13
2022-12-06T17:38:32.770Z,101838.03
2022-12-06T17:44:03.134Z,101831.22
2022-12-06T17:49:32.581Z,101838.34
2022-12-06T17:54:59.792Z,101838.53
2022-12-06T18:00:31.078Z,101823.81
2022-12-06T18:05:54.733Z,101835.09
2022-12-06T18:11:21.580Z,101826.03
2022-12-06T18:16:52.084Z,101836.47
2022-12-06T18:22:15.876Z,101840.25
2022-12-06T18:27:43.612Z,101841.50
2022-12-06T18:33:19.180Z,101834.00
2022-12-06T18:38:50.538Z,101816.16
2022-12-06T18:44:19.998Z,101807.09
2022-12-06T18:49:45.030Z,101800.44
2022-12-06T18:55:09.715Z,101821.31
2022-12-06T19:00:41.168Z,101798.38
2022-12-06T19:06:16.255Z,101792.88
2022-12-06T19:11:43.367Z,101796.38
2022-12-06T19:17:13.198Z,101787.09
2022-12-06T19:22:44.052Z,101780.44
2022-12-06T19:28:12.985Z,101773.53
2022-12-06T19:33:43.437Z,101777.69
2022-12-06T19:39:09.091Z,101773.94
2022-12-06T19:44:39.554Z,101771.09
2022-12-06T19:50:09.568Z,101774.28
2022-12-06T19:55:39.864Z,101781.91
2022-12-06T20:01:10.583Z,101766.63
2022-12-06T20:06:35.133Z,101770.69
2022-12-06T20:12:07.600Z,101765.97
2022-12-06T20:17:31.245Z,101771.84
2022-12-06T20:22:55.717Z,101776.00
2022-12-06T20:28:21.297Z,101765.47
2022-12-06T20:33:51.292Z,101767.56
2022-12-06T20:39:22.565Z,101767.69
2022-12-06T20:44:50.138Z,101782.81
2022-12-06T20:50:19.481Z,101772.78
2022-12-06T20:55:48.905Z,101779.59
2022-12-06T21:01:21.835Z,101780.19
2022-12-06T21:06:50.783Z,101764.34
2022-12-06T21:12:20.342Z,101769.19
2022-12-06T21:17:46.483Z,101769.53
2022-12-06T21:23:16.198Z,101764.81
2022-12-06T21:28:46.381Z,101760.09
2022-12-06T21:34:13.558Z,101751.38
2022-12-06T21:39:39.056Z,101740.94
2022-12-06T21:45:02.848Z,101726.72
2022-12-06T21:50:27.823Z,101722.06
2022-12-06T21:55:56.554Z,101715.06
2022-12-06T22:01:22.201Z,101706.75
2022-12-06T22:06:48.316Z,101701.34
2022-12-06T22:12:11.726Z,101697.19
2022-12-06T22:17:40.893Z,101692.72
2022-12-06T22:23:11.503Z,101689.63
2022-12-06T22:28:37.171Z,101688.09
